sensor_id;sensor_type;location;lat;lon;timestamp;P1;durP1;ratioP1;P2;durP2;ratioP2
59074;SDS011;44860;53.020;6.738;2023-12-20T00:00:59;13.85;;;2.50;;
59074;SDS011;44860;53.020;6.738;2023-12-20T00:03:25;20.15;;;2.80;;
59074;SDS011;44860;53.020;6.738;2023-12-20T00:05:51;22.67;;;2.70;;
59074;SDS011;44860;53.020;6.738;2023-12-20T00:08:16;15.10;;;2.60;;
59074;SDS011;44860;53.020;6.738;2023-12-20T00:10:43;22.92;;;3.17;;
59074;SDS011;44860;53.020;6.738;2023-12-20T00:13:09;19.67;;;2.50;;
59074;SDS011;44860;53.020;6.738;2023-12-20T00:15:35;10.40;;;2.25;;
59074;SDS011;44860;53.020;6.738;2023-12-20T00:18:00;14.18;;;2.63;;
59074;SDS011;44860;53.020;6.738;2023-12-20T00:20:26;13.77;;;2.67;;
59074;SDS011;44860;53.020;6.738;2023-12-20T00:22:54;17.83;;;2.50;;
59074;SDS011;44860;53.020;6.738;2023-12-20T00:25:27;20.08;;;2.67;;
59074;SDS011;44860;53.020;6.738;2023-12-20T00:27:53;14.82;;;2.72;;
59074;SDS011;44860;53.020;6.738;2023-12-20T00:30:18;14.73;;;2.50;;
59074;SDS011;44860;53.020;6.738;2023-12-20T00:32:44;16.50;;;2.30;;
59074;SDS011;44860;53.020;6.738;2023-12-20T00:35:18;16.10;;;2.28;;
59074;SDS011;44860;53.020;6.738;2023-12-20T00:37:44;16.10;;;2.50;;
59074;SDS011;44860;53.020;6.738;2023-12-20T00:40:10;15.75;;;2.55;;
59074;SDS011;44860;53.020;6.738;2023-12-20T00:42:36;19.50;;;2.58;;
59074;SDS011;44860;53.020;6.738;2023-12-20T00:45:02;22.02;;;2.92;;
59074;SDS011;44860;53.020;6.738;2023-12-20T00:47:29;13.88;;;2.50;;
59074;SDS011;44860;53.020;6.738;2023-12-20T00:49:58;13.45;;;2.38;;
59074;SDS011;44860;53.020;6.738;2023-12-20T00:52:24;12.82;;;2.13;;
59074;SDS011;44860;53.020;6.738;2023-12-20T00:54:50;15.60;;;2.30;;
59074;SDS011;44860;53.020;6.738;2023-12-20T00:57:15;20.27;;;2.70;;
59074;SDS011;44860;53.020;6.738;2023-12-20T00:59:41;13.90;;;2.20;;
59074;SDS011;44860;53.020;6.738;2023-12-20T01:02:07;13.80;;;2.40;;
59074;SDS011;44860;53.020;6.738;2023-12-20T01:04:33;18.67;;;3.05;;
59074;SDS011;44860;53.020;6.738;2023-12-20T01:06:59;19.15;;;3.17;;
59074;SDS011;44860;53.020;6.738;2023-12-20T01:09:25;14.18;;;2.63;;
59074;SDS011;44860;53.020;6.738;2023-12-20T01:11:53;15.45;;;2.55;;
59074;SDS011;44860;53.020;6.738;2023-12-20T01:14:19;15.00;;;2.72;;
59074;SDS011;44860;53.020;6.738;2023-12-20T01:16:45;15.68;;;2.88;;
59074;SDS011;44860;53.020;6.738;2023-12-20T01:19:10;21.02;;;3.05;;
59074;SDS011;44860;53.020;6.738;2023-12-20T01:21:36;15.38;;;2.70;;
59074;SDS011;44860;53.020;6.738;2023-12-20T01:24:02;20.00;;;2.80;;
59074;SDS011;44860;53.020;6.738;2023-12-20T01:26:28;17.85;;;2.72;;
59074;SDS011;44860;53.020;6.738;2023-12-20T01:28:53;16.85;;;2.90;;
59074;SDS011;44860;53.020;6.738;2023-12-20T01:31:19;13.07;;;2.55;;
59074;SDS011;44860;53.020;6.738;2023-12-20T01:33:45;15.18;;;2.78;;
59074;SDS011;44860;53.020;6.738;2023-12-20T01:36:11;15.27;;;2.40;;
59074;SDS011;44860;53.020;6.738;2023-12-20T01:38:37;16.60;;;2.70;;
59074;SDS011;44860;53.020;6.738;2023-12-20T01:41:02;21.88;;;3.13;;
59074;SDS011;44860;53.020;6.738;2023-12-20T01:43:29;21.80;;;3.10;;
59074;SDS011;44860;53.020;6.738;2023-12-20T01:45:55;23.63;;;2.85;;
59074;SDS011;44860;53.020;6.738;2023-12-20T01:48:22;18.05;;;3.00;;
59074;SDS011;44860;53.020;6.738;2023-12-20T01:50:48;18.00;;;3.72;;
59074;SDS011;44860;53.020;6.738;2023-12-20T01:53:14;23.02;;;3.15;;
59074;SDS011;44860;53.020;6.738;2023-12-20T01:55:41;21.75;;;3.30;;
59074;SDS011;44860;53.020;6.738;2023-12-20T01:58:07;16.40;;;3.72;;
59074;SDS011;44860;53.020;6.738;2023-12-20T02:00:35;21.42;;;2.92;;
59074;SDS011;44860;53.020;6.738;2023-12-20T02:03:02;16.58;;;2.88;;
59074;SDS011;44860;53.020;6.738;2023-12-20T02:05:32;19.77;;;3.30;;
59074;SDS011;44860;53.020;6.738;2023-12-20T02:07:59;18.90;;;2.85;;
59074;SDS011;44860;53.020;6.738;2023-12-20T02:10:24;20.65;;;3.15;;
59074;SDS011;44860;53.020;6.738;2023-12-20T02:12:50;15.82;;;2.80;;
59074;SDS011;44860;53.020;6.738;2023-12-20T02:15:16;11.75;;;2.55;;
59074;SDS011;44860;53.020;6.738;2023-12-20T02:17:42;21.25;;;3.50;;
59074;SDS011;44860;53.020;6.738;2023-12-20T02:20:08;29.00;;;3.63;;
59074;SDS011;44860;53.020;6.738;2023-12-20T02:22:34;20.40;;;3.47;;
59074;SDS011;44860;53.020;6.738;2023-12-20T02:25:00;20.63;;;3.00;;
59074;SDS011;44860;53.020;6.738;2023-12-20T02:27:26;15.85;;;2.55;;
59074;SDS011;44860;53.020;6.738;2023-12-20T02:29:53;19.27;;;3.42;;
59074;SDS011;44860;53.020;6.738;2023-12-20T02:32:19;28.13;;;4.43;;
59074;SDS011;44860;53.020;6.738;2023-12-20T02:34:47;17.98;;;3.08;;
59074;SDS011;44860;53.020;6.738;2023-12-20T02:37:13;20.52;;;3.35;;
59074;SDS011;44860;53.020;6.738;2023-12-20T02:39:39;19.67;;;3.50;;
59074;SDS011;44860;53.020;6.738;2023-12-20T02:42:05;31.95;;;4.35;;
59074;SDS011;44860;53.020;6.738;2023-12-20T02:44:30;18.42;;;3.05;;
59074;SDS011;44860;53.020;6.738;2023-12-20T02:46:56;20.05;;;3.42;;
59074;SDS011;44860;53.020;6.738;2023-12-20T02:49:22;18.50;;;3.55;;
59074;SDS011;44860;53.020;6.738;2023-12-20T02:51:47;19.65;;;3.60;;
59074;SDS011;44860;53.020;6.738;2023-12-20T02:54:13;19.50;;;3.75;;
59074;SDS011;44860;53.020;6.738;2023-12-20T02:56:39;19.60;;;3.72;;
59074;SDS011;44860;53.020;6.738;2023-12-20T02:59:05;32.63;;;4.18;;
59074;SDS011;44860;53.020;6.738;2023-12-20T03:01:31;22.85;;;3.78;;
59074;SDS011;44860;53.020;6.738;2023-12-20T03:03:56;25.35;;;4.43;;
59074;SDS011;44860;53.020;6.738;2023-12-20T03:06:22;22.05;;;4.07;;
59074;SDS011;44860;53.020;6.738;2023-12-20T03:08:48;24.70;;;4.00;;
59074;SDS011;44860;53.020;6.738;2023-12-20T03:11:14;24.25;;;3.92;;
59074;SDS011;44860;53.020;6.738;2023-12-20T03:13:39;24.20;;;4.05;;
59074;SDS011;44860;53.020;6.738;2023-12-20T03:16:09;21.73;;;3.67;;
59074;SDS011;44860;53.020;6.738;2023-12-20T03:18:35;20.20;;;3.95;;
59074;SDS011;44860;53.020;6.738;2023-12-20T03:21:01;23.38;;;4.00;;
59074;SDS011;44860;53.020;6.738;2023-12-20T03:23:26;24.02;;;3.53;;
59074;SDS011;44860;53.020;6.738;2023-12-20T03:25:52;24.75;;;3.97;;
59074;SDS011;44860;53.020;6.738;2023-12-20T03:28:18;28.98;;;3.83;;
59074;SDS011;44860;53.020;6.738;2023-12-20T03:30:44;21.75;;;3.85;;
59074;SDS011;44860;53.020;6.738;2023-12-20T03:33:10;23.30;;;3.92;;
59074;SDS011;44860;53.020;6.738;2023-12-20T03:35:36;25.02;;;4.28;;
59074;SDS011;44860;53.020;6.738;2023-12-20T03:38:02;22.77;;;4.35;;
59074;SDS011;44860;53.020;6.738;2023-12-20T03:40:27;26.85;;;4.40;;
59074;SDS011;44860;53.020;6.738;2023-12-20T03:42:53;30.65;;;4.53;;
59074;SDS011;44860;53.020;6.738;2023-12-20T03:45:19;27.85;;;4.47;;
59074;SDS011;44860;53.020;6.738;2023-12-20T03:47:44;27.50;;;4.28;;
59074;SDS011;44860;53.020;6.738;2023-12-20T03:50:10;25.42;;;4.00;;
59074;SDS011;44860;53.020;6.738;2023-12-20T03:52:36;24.85;;;4.35;;
59074;SDS011;44860;53.020;6.738;2023-12-20T03:55:01;23.08;;;3.88;;
59074;SDS011;44860;53.020;6.738;2023-12-20T03:57:27;32.92;;;4.97;;
59074;SDS011;44860;53.020;6.738;2023-12-20T03:59:53;29.05;;;4.47;;
59074;SDS011;44860;53.020;6.738;2023-12-20T04:02:18;26.30;;;4.32;;
59074;SDS011;44860;53.020;6.738;2023-12-20T04:04:44;26.30;;;4.13;;
59074;SDS011;44860;53.020;6.738;2023-12-20T04:07:10;24.67;;;5.35;;
59074;SDS011;44860;53.020;6.738;2023-12-20T04:09:35;25.30;;;4.57;;
59074;SDS011;44860;53.020;6.738;2023-12-20T04:12:01;29.60;;;4.03;;
59074;SDS011;44860;53.020;6.738;2023-12-20T04:14:27;25.88;;;4.90;;
59074;SDS011;44860;53.020;6.738;2023-12-20T04:16:53;30.13;;;4.68;;
59074;SDS011;44860;53.020;6.738;2023-12-20T04:19:19;21.50;;;4.82;;
59074;SDS011;44860;53.020;6.738;2023-12-20T04:21:44;32.25;;;5.38;;
59074;SDS011;44860;53.020;6.738;2023-12-20T04:24:10;32.33;;;5.35;;
59074;SDS011;44860;53.020;6.738;2023-12-20T04:26:36;25.45;;;4.90;;
59074;SDS011;44860;53.020;6.738;2023-12-20T04:29:01;27.00;;;4.32;;
59074;SDS011;44860;53.020;6.738;2023-12-20T04:31:27;25.90;;;4.47;;
59074;SDS011;44860;53.020;6.738;2023-12-20T04:33:53;28.25;;;5.10;;
59074;SDS011;44860;53.020;6.738;2023-12-20T04:36:18;29.75;;;5.57;;
59074;SDS011;44860;53.020;6.738;2023-12-20T04:38:44;31.73;;;5.78;;
59074;SDS011;44860;53.020;6.738;2023-12-20T04:41:09;29.50;;;5.13;;
59074;SDS011;44860;53.020;6.738;2023-12-20T04:43:35;34.72;;;5.10;;
59074;SDS011;44860;53.020;6.738;2023-12-20T04:46:01;28.20;;;4.82;;
59074;SDS011;44860;53.020;6.738;2023-12-20T04:48:27;29.95;;;4.88;;
59074;SDS011;44860;53.020;6.738;2023-12-20T04:50:53;30.45;;;4.65;;
59074;SDS011;44860;53.020;6.738;2023-12-20T04:53:18;28.10;;;5.35;;
59074;SDS011;44860;53.020;6.738;2023-12-20T04:55:44;29.08;;;4.68;;
59074;SDS011;44860;53.020;6.738;2023-12-20T04:58:09;33.50;;;5.60;;
59074;SDS011;44860;53.020;6.738;2023-12-20T05:00:35;33.95;;;5.13;;
59074;SDS011;44860;53.020;6.738;2023-12-20T05:03:01;37.95;;;5.72;;
59074;SDS011;44860;53.020;6.738;2023-12-20T05:05:26;31.45;;;5.03;;
59074;SDS011;44860;53.020;6.738;2023-12-20T05:07:52;24.67;;;5.18;;
59074;SDS011;44860;53.020;6.738;2023-12-20T05:10:18;28.58;;;4.43;;
59074;SDS011;44860;53.020;6.738;2023-12-20T05:12:43;31.77;;;4.72;;
59074;SDS011;44860;53.020;6.738;2023-12-20T05:15:09;30.20;;;5.57;;
59074;SDS011;44860;53.020;6.738;2023-12-20T05:17:35;29.55;;;4.93;;
59074;SDS011;44860;53.020;6.738;2023-12-20T05:20:00;27.17;;;4.55;;
59074;SDS011;44860;53.020;6.738;2023-12-20T05:22:26;30.10;;;4.57;;
59074;SDS011;44860;53.020;6.738;2023-12-20T05:24:52;24.85;;;4.68;;
59074;SDS011;44860;53.020;6.738;2023-12-20T05:27:18;23.80;;;4.45;;
59074;SDS011;44860;53.020;6.738;2023-12-20T05:29:44;28.30;;;4.35;;
59074;SDS011;44860;53.020;6.738;2023-12-20T05:32:09;25.70;;;4.38;;
59074;SDS011;44860;53.020;6.738;2023-12-20T05:34:35;25.80;;;4.57;;
59074;SDS011;44860;53.020;6.738;2023-12-20T05:37:01;25.33;;;3.88;;
59074;SDS011;44860;53.020;6.738;2023-12-20T05:39:27;37.42;;;5.40;;
59074;SDS011;44860;53.020;6.738;2023-12-20T05:41:53;26.08;;;5.05;;
59074;SDS011;44860;53.020;6.738;2023-12-20T05:44:18;26.95;;;4.95;;
59074;SDS011;44860;53.020;6.738;2023-12-20T05:46:44;32.67;;;4.68;;
59074;SDS011;44860;53.020;6.738;2023-12-20T05:49:10;27.48;;;4.82;;
59074;SDS011;44860;53.020;6.738;2023-12-20T05:51:36;33.17;;;5.72;;
59074;SDS011;44860;53.020;6.738;2023-12-20T05:54:01;26.40;;;4.72;;
59074;SDS011;44860;53.020;6.738;2023-12-20T05:56:27;22.95;;;4.20;;
59074;SDS011;44860;53.020;6.738;2023-12-20T05:58:53;24.75;;;3.85;;
59074;SDS011;44860;53.020;6.738;2023-12-20T06:01:18;26.00;;;4.32;;
59074;SDS011;44860;53.020;6.738;2023-12-20T06:03:44;31.10;;;5.43;;
59074;SDS011;44860;53.020;6.738;2023-12-20T06:06:11;25.00;;;5.53;;
59074;SDS011;44860;53.020;6.738;2023-12-20T06:08:37;23.65;;;4.53;;
59074;SDS011;44860;53.020;6.738;2023-12-20T06:11:03;34.30;;;5.72;;
59074;SDS011;44860;53.020;6.738;2023-12-20T06:13:30;24.35;;;4.32;;
59074;SDS011;44860;53.020;6.738;2023-12-20T06:15:56;26.98;;;4.47;;
59074;SDS011;44860;53.020;6.738;2023-12-20T06:18:22;25.40;;;4.65;;
59074;SDS011;44860;53.020;6.738;2023-12-20T06:20:48;26.05;;;4.75;;
59074;SDS011;44860;53.020;6.738;2023-12-20T06:23:13;29.05;;;5.45;;
59074;SDS011;44860;53.020;6.738;2023-12-20T06:25:39;29.73;;;4.85;;
59074;SDS011;44860;53.020;6.738;2023-12-20T06:28:05;23.92;;;4.57;;
59074;SDS011;44860;53.020;6.738;2023-12-20T06:30:31;27.65;;;4.78;;
59074;SDS011;44860;53.020;6.738;2023-12-20T06:32:57;28.65;;;4.75;;
59074;SDS011;44860;53.020;6.738;2023-12-20T06:35:23;32.38;;;5.93;;
59074;SDS011;44860;53.020;6.738;2023-12-20T06:37:49;29.40;;;5.18;;
59074;SDS011;44860;53.020;6.738;2023-12-20T06:40:15;34.85;;;5.53;;
59074;SDS011;44860;53.020;6.738;2023-12-20T06:42:41;25.98;;;4.80;;
59074;SDS011;44860;53.020;6.738;2023-12-20T06:45:07;29.17;;;4.70;;
59074;SDS011;44860;53.020;6.738;2023-12-20T06:47:33;31.40;;;4.70;;
59074;SDS011;44860;53.020;6.738;2023-12-20T06:49:59;24.02;;;4.40;;
59074;SDS011;44860;53.020;6.738;2023-12-20T06:52:25;26.33;;;4.72;;
59074;SDS011;44860;53.020;6.738;2023-12-20T06:54:51;27.98;;;4.57;;
59074;SDS011;44860;53.020;6.738;2023-12-20T06:57:17;27.75;;;4.32;;
59074;SDS011;44860;53.020;6.738;2023-12-20T06:59:43;32.75;;;5.90;;
59074;SDS011;44860;53.020;6.738;2023-12-20T07:02:09;29.83;;;4.97;;
59074;SDS011;44860;53.020;6.738;2023-12-20T07:04:38;32.92;;;5.20;;
59074;SDS011;44860;53.020;6.738;2023-12-20T07:07:07;30.50;;;4.88;;
59074;SDS011;44860;53.020;6.738;2023-12-20T07:09:33;39.25;;;5.40;;
59074;SDS011;44860;53.020;6.738;2023-12-20T07:11:59;28.63;;;5.05;;
59074;SDS011;44860;53.020;6.738;2023-12-20T07:14:25;22.58;;;4.78;;
59074;SDS011;44860;53.020;6.738;2023-12-20T07:16:50;29.90;;;5.00;;
59074;SDS011;44860;53.020;6.738;2023-12-20T07:19:16;35.20;;;5.13;;
59074;SDS011;44860;53.020;6.738;2023-12-20T07:21:42;29.10;;;4.90;;
59074;SDS011;44860;53.020;6.738;2023-12-20T07:24:08;20.33;;;4.25;;
59074;SDS011;44860;53.020;6.738;2023-12-20T07:26:34;29.25;;;4.78;;
59074;SDS011;44860;53.020;6.738;2023-12-20T07:29:00;23.25;;;5.13;;
59074;SDS011;44860;53.020;6.738;2023-12-20T07:31:26;24.55;;;4.97;;
59074;SDS011;44860;53.020;6.738;2023-12-20T07:33:51;24.85;;;5.25;;
59074;SDS011;44860;53.020;6.738;2023-12-20T07:36:17;27.25;;;4.65;;
59074;SDS011;44860;53.020;6.738;2023-12-20T07:38:44;34.80;;;6.38;;
59074;SDS011;44860;53.020;6.738;2023-12-20T07:41:10;35.35;;;5.22;;
59074;SDS011;44860;53.020;6.738;2023-12-20T07:43:36;29.13;;;4.57;;
59074;SDS011;44860;53.020;6.738;2023-12-20T07:46:05;25.27;;;4.75;;
59074;SDS011;44860;53.020;6.738;2023-12-20T07:48:31;30.67;;;5.40;;
59074;SDS011;44860;53.020;6.738;2023-12-20T07:50:58;29.15;;;5.07;;
59074;SDS011;44860;53.020;6.738;2023-12-20T07:53:24;26.70;;;4.75;;
59074;SDS011;44860;53.020;6.738;2023-12-20T07:55:49;27.08;;;5.28;;
59074;SDS011;44860;53.020;6.738;2023-12-20T07:58:17;28.27;;;5.38;;
59074;SDS011;44860;53.020;6.738;2023-12-20T08:00:43;29.65;;;4.97;;
59074;SDS011;44860;53.020;6.738;2023-12-20T08:03:09;30.63;;;5.13;;
59074;SDS011;44860;53.020;6.738;2023-12-20T08:05:34;29.75;;;5.45;;
59074;SDS011;44860;53.020;6.738;2023-12-20T08:08:00;26.35;;;4.97;;
59074;SDS011;44860;53.020;6.738;2023-12-20T08:10:26;30.17;;;5.47;;
59074;SDS011;44860;53.020;6.738;2023-12-20T08:12:54;26.08;;;4.65;;
59074;SDS011;44860;53.020;6.738;2023-12-20T08:15:20;26.95;;;5.20;;
59074;SDS011;44860;53.020;6.738;2023-12-20T08:17:45;27.90;;;6.30;;
59074;SDS011;44860;53.020;6.738;2023-12-20T08:20:11;25.00;;;5.13;;
59074;SDS011;44860;53.020;6.738;2023-12-20T08:22:37;32.05;;;5.65;;
59074;SDS011;44860;53.020;6.738;2023-12-20T08:25:03;28.60;;;5.40;;
59074;SDS011;44860;53.020;6.738;2023-12-20T08:27:29;31.30;;;5.20;;
59074;SDS011;44860;53.020;6.738;2023-12-20T08:29:56;26.13;;;5.07;;
59074;SDS011;44860;53.020;6.738;2023-12-20T08:32:21;26.25;;;5.13;;
59074;SDS011;44860;53.020;6.738;2023-12-20T08:34:50;27.75;;;4.93;;
59074;SDS011;44860;53.020;6.738;2023-12-20T08:37:15;24.13;;;4.65;;
59074;SDS011;44860;53.020;6.738;2023-12-20T08:39:41;25.92;;;4.70;;
59074;SDS011;44860;53.020;6.738;2023-12-20T08:42:08;24.33;;;4.88;;
59074;SDS011;44860;53.020;6.738;2023-12-20T08:44:34;26.85;;;4.40;;
59074;SDS011;44860;53.020;6.738;2023-12-20T08:46:59;18.98;;;4.20;;
59074;SDS011;44860;53.020;6.738;2023-12-20T08:49:25;16.85;;;3.08;;
59074;SDS011;44860;53.020;6.738;2023-12-20T08:51:51;17.10;;;3.35;;
59074;SDS011;44860;53.020;6.738;2023-12-20T08:54:19;16.52;;;2.95;;
59074;SDS011;44860;53.020;6.738;2023-12-20T08:56:45;16.08;;;3.05;;
59074;SDS011;44860;53.020;6.738;2023-12-20T08:59:11;15.68;;;3.17;;
59074;SDS011;44860;53.020;6.738;2023-12-20T09:01:37;14.50;;;2.80;;
59074;SDS011;44860;53.020;6.738;2023-12-20T09:04:03;18.75;;;3.25;;
59074;SDS011;44860;53.020;6.738;2023-12-20T09:06:29;20.50;;;3.50;;
59074;SDS011;44860;53.020;6.738;2023-12-20T09:08:54;21.08;;;4.85;;
59074;SDS011;44860;53.020;6.738;2023-12-20T09:11:20;20.92;;;4.07;;
59074;SDS011;44860;53.020;6.738;2023-12-20T09:16:41;36.70;;;4.47;;
59074;SDS011;44860;53.020;6.738;2023-12-20T09:19:07;21.42;;;4.25;;
59074;SDS011;44860;53.020;6.738;2023-12-20T09:24:52;27.48;;;4.40;;
59074;SDS011;44860;53.020;6.738;2023-12-20T09:27:19;14.93;;;3.50;;
59074;SDS011;44860;53.020;6.738;2023-12-20T09:29:44;14.85;;;2.92;;
59074;SDS011;44860;53.020;6.738;2023-12-20T09:32:10;13.75;;;2.05;;
59074;SDS011;44860;53.020;6.738;2023-12-20T09:34:35;11.75;;;2.20;;
59074;SDS011;44860;53.020;6.738;2023-12-20T09:37:05;9.68;;;1.63;;
59074;SDS011;44860;53.020;6.738;2023-12-20T09:39:32;6.68;;;1.58;;
59074;SDS011;44860;53.020;6.738;2023-12-20T09:42:02;9.63;;;1.70;;
59074;SDS011;44860;53.020;6.738;2023-12-20T09:44:29;8.30;;;1.20;;
59074;SDS011;44860;53.020;6.738;2023-12-20T09:46:56;7.60;;;1.58;;
59074;SDS011;44860;53.020;6.738;2023-12-20T09:49:22;6.95;;;1.50;;
59074;SDS011;44860;53.020;6.738;2023-12-20T09:51:52;10.13;;;1.60;;
59074;SDS011;44860;53.020;6.738;2023-12-20T09:54:19;8.15;;;1.42;;
59074;SDS011;44860;53.020;6.738;2023-12-20T09:56:48;8.45;;;1.30;;
59074;SDS011;44860;53.020;6.738;2023-12-20T09:59:14;9.38;;;1.63;;
59074;SDS011;44860;53.020;6.738;2023-12-20T10:01:40;6.28;;;1.30;;
59074;SDS011;44860;53.020;6.738;2023-12-20T10:04:08;11.35;;;1.40;;
59074;SDS011;44860;53.020;6.738;2023-12-20T10:06:43;7.20;;;1.40;;
59074;SDS011;44860;53.020;6.738;2023-12-20T10:09:10;9.35;;;1.70;;
59074;SDS011;44860;53.020;6.738;2023-12-20T10:11:37;9.85;;;1.40;;
59074;SDS011;44860;53.020;6.738;2023-12-20T10:14:10;11.13;;;2.20;;
59074;SDS011;44860;53.020;6.738;2023-12-20T10:16:51;10.63;;;2.57;;
59074;SDS011;44860;53.020;6.738;2023-12-20T10:19:37;9.88;;;2.20;;
59074;SDS011;44860;53.020;6.738;2023-12-20T10:22:16;9.18;;;1.77;;
59074;SDS011;44860;53.020;6.738;2023-12-20T10:24:49;11.88;;;2.03;;
59074;SDS011;44860;53.020;6.738;2023-12-20T10:27:15;7.65;;;1.83;;
59074;SDS011;44860;53.020;6.738;2023-12-20T10:29:44;12.40;;;1.80;;
59074;SDS011;44860;53.020;6.738;2023-12-20T10:35:01;11.52;;;1.85;;
59074;SDS011;44860;53.020;6.738;2023-12-20T10:37:38;11.32;;;2.05;;
59074;SDS011;44860;53.020;6.738;2023-12-20T10:40:04;11.10;;;1.92;;
59074;SDS011;44860;53.020;6.738;2023-12-20T10:42:32;13.30;;;2.20;;
59074;SDS011;44860;53.020;6.738;2023-12-20T10:44:59;10.05;;;1.70;;
59074;SDS011;44860;53.020;6.738;2023-12-20T10:47:25;7.05;;;1.50;;
59074;SDS011;44860;53.020;6.738;2023-12-20T10:49:54;12.93;;;2.10;;
59074;SDS011;44860;53.020;6.738;2023-12-20T10:52:22;14.82;;;2.72;;
59074;SDS011;44860;53.020;6.738;2023-12-20T10:54:48;10.02;;;1.92;;
59074;SDS011;44860;53.020;6.738;2023-12-20T10:57:14;12.88;;;1.95;;
59074;SDS011;44860;53.020;6.738;2023-12-20T10:59:43;16.10;;;2.95;;
59074;SDS011;44860;53.020;6.738;2023-12-20T11:02:12;11.05;;;1.90;;
59074;SDS011;44860;53.020;6.738;2023-12-20T11:04:47;10.95;;;2.03;;
59074;SDS011;44860;53.020;6.738;2023-12-20T11:07:23;10.00;;;1.73;;
59074;SDS011;44860;53.020;6.738;2023-12-20T11:10:03;13.80;;;2.63;;
59074;SDS011;44860;53.020;6.738;2023-12-20T11:15:27;12.43;;;1.90;;
59074;SDS011;44860;53.020;6.738;2023-12-20T11:17:56;11.48;;;2.17;;
59074;SDS011;44860;53.020;6.738;2023-12-20T11:20:24;11.10;;;1.90;;
59074;SDS011;44860;53.020;6.738;2023-12-20T11:23:00;13.77;;;2.38;;
59074;SDS011;44860;53.020;6.738;2023-12-20T11:25:26;11.27;;;2.03;;
59074;SDS011;44860;53.020;6.738;2023-12-20T11:28:08;12.27;;;2.13;;
59074;SDS011;44860;53.020;6.738;2023-12-20T11:30:40;8.75;;;1.63;;
59074;SDS011;44860;53.020;6.738;2023-12-20T11:33:27;9.35;;;1.90;;
59074;SDS011;44860;53.020;6.738;2023-12-20T11:35:56;17.42;;;3.13;;
59074;SDS011;44860;53.020;6.738;2023-12-20T11:38:22;16.70;;;3.63;;
59074;SDS011;44860;53.020;6.738;2023-12-20T11:40:49;13.65;;;2.40;;
59074;SDS011;44860;53.020;6.738;2023-12-20T11:46:03;14.38;;;2.40;;
59074;SDS011;44860;53.020;6.738;2023-12-20T11:48:39;10.48;;;1.88;;
59074;SDS011;44860;53.020;6.738;2023-12-20T11:51:08;13.43;;;1.92;;
59074;SDS011;44860;53.020;6.738;2023-12-20T11:53:38;12.30;;;2.22;;
59074;SDS011;44860;53.020;6.738;2023-12-20T11:56:07;10.35;;;2.17;;
59074;SDS011;44860;53.020;6.738;2023-12-20T11:58:33;15.18;;;3.08;;
59074;SDS011;44860;53.020;6.738;2023-12-20T12:01:00;13.15;;;2.13;;
59074;SDS011;44860;53.020;6.738;2023-12-20T12:03:27;13.20;;;2.40;;
59074;SDS011;44860;53.020;6.738;2023-12-20T12:05:53;13.13;;;2.45;;
59074;SDS011;44860;53.020;6.738;2023-12-20T12:08:19;10.07;;;2.15;;
59074;SDS011;44860;53.020;6.738;2023-12-20T12:10:44;14.82;;;2.63;;
59074;SDS011;44860;53.020;6.738;2023-12-20T12:13:10;13.45;;;2.35;;
59074;SDS011;44860;53.020;6.738;2023-12-20T12:15:37;14.25;;;2.05;;
59074;SDS011;44860;53.020;6.738;2023-12-20T12:18:03;12.00;;;2.20;;
59074;SDS011;44860;53.020;6.738;2023-12-20T12:20:30;16.77;;;2.63;;
59074;SDS011;44860;53.020;6.738;2023-12-20T12:23:05;12.65;;;2.47;;
59074;SDS011;44860;53.020;6.738;2023-12-20T12:25:32;16.98;;;2.63;;
59074;SDS011;44860;53.020;6.738;2023-12-20T12:28:00;12.00;;;2.10;;
59074;SDS011;44860;53.020;6.738;2023-12-20T12:30:26;13.07;;;2.85;;
59074;SDS011;44860;53.020;6.738;2023-12-20T12:32:52;9.10;;;2.08;;
59074;SDS011;44860;53.020;6.738;2023-12-20T12:35:18;12.75;;;2.28;;
59074;SDS011;44860;53.020;6.738;2023-12-20T12:37:45;19.35;;;2.60;;
59074;SDS011;44860;53.020;6.738;2023-12-20T12:40:11;11.13;;;2.45;;
59074;SDS011;44860;53.020;6.738;2023-12-20T12:42:41;13.50;;;2.85;;
59074;SDS011;44860;53.020;6.738;2023-12-20T12:45:08;15.00;;;2.55;;
59074;SDS011;44860;53.020;6.738;2023-12-20T12:47:34;15.10;;;2.42;;
59074;SDS011;44860;53.020;6.738;2023-12-20T12:50:00;19.33;;;2.47;;
59074;SDS011;44860;53.020;6.738;2023-12-20T12:52:26;16.80;;;2.88;;
59074;SDS011;44860;53.020;6.738;2023-12-20T12:54:52;12.65;;;2.50;;
59074;SDS011;44860;53.020;6.738;2023-12-20T12:57:18;13.73;;;2.53;;
59074;SDS011;44860;53.020;6.738;2023-12-20T12:59:45;20.20;;;3.10;;
59074;SDS011;44860;53.020;6.738;2023-12-20T13:02:12;16.10;;;2.72;;
59074;SDS011;44860;53.020;6.738;2023-12-20T13:04:41;18.23;;;2.72;;
59074;SDS011;44860;53.020;6.738;2023-12-20T13:07:08;12.80;;;2.35;;
59074;SDS011;44860;53.020;6.738;2023-12-20T13:09:36;16.15;;;2.97;;
59074;SDS011;44860;53.020;6.738;2023-12-20T13:12:02;16.08;;;2.60;;
59074;SDS011;44860;53.020;6.738;2023-12-20T13:14:32;11.48;;;2.50;;
59074;SDS011;44860;53.020;6.738;2023-12-20T13:16:59;13.60;;;2.22;;
59074;SDS011;44860;53.020;6.738;2023-12-20T13:19:26;17.23;;;2.78;;
59074;SDS011;44860;53.020;6.738;2023-12-20T13:21:51;21.13;;;3.15;;
59074;SDS011;44860;53.020;6.738;2023-12-20T13:24:17;17.75;;;2.97;;
59074;SDS011;44860;53.020;6.738;2023-12-20T13:26:43;17.27;;;3.03;;
59074;SDS011;44860;53.020;6.738;2023-12-20T13:29:09;15.77;;;2.67;;
59074;SDS011;44860;53.020;6.738;2023-12-20T13:31:35;16.25;;;2.22;;
59074;SDS011;44860;53.020;6.738;2023-12-20T13:34:01;12.57;;;2.58;;
59074;SDS011;44860;53.020;6.738;2023-12-20T13:36:27;16.45;;;2.83;;
59074;SDS011;44860;53.020;6.738;2023-12-20T13:38:53;12.98;;;2.00;;
59074;SDS011;44860;53.020;6.738;2023-12-20T13:41:19;12.07;;;2.00;;
59074;SDS011;44860;53.020;6.738;2023-12-20T13:43:45;10.57;;;1.95;;
59074;SDS011;44860;53.020;6.738;2023-12-20T13:46:10;10.45;;;2.22;;
59074;SDS011;44860;53.020;6.738;2023-12-20T13:48:36;12.10;;;2.10;;
59074;SDS011;44860;53.020;6.738;2023-12-20T13:51:03;9.13;;;1.98;;
59074;SDS011;44860;53.020;6.738;2023-12-20T13:53:28;7.15;;;1.50;;
59074;SDS011;44860;53.020;6.738;2023-12-20T13:55:54;9.45;;;1.77;;
59074;SDS011;44860;53.020;6.738;2023-12-20T13:58:20;11.05;;;1.83;;
59074;SDS011;44860;53.020;6.738;2023-12-20T14:00:45;9.02;;;2.03;;
59074;SDS011;44860;53.020;6.738;2023-12-20T14:03:11;11.40;;;1.95;;
59074;SDS011;44860;53.020;6.738;2023-12-20T14:05:37;13.13;;;2.35;;
59074;SDS011;44860;53.020;6.738;2023-12-20T14:08:03;7.95;;;1.55;;
59074;SDS011;44860;53.020;6.738;2023-12-20T14:10:29;10.30;;;1.80;;
59074;SDS011;44860;53.020;6.738;2023-12-20T14:12:55;13.02;;;2.38;;
59074;SDS011;44860;53.020;6.738;2023-12-20T14:15:20;10.85;;;2.10;;
59074;SDS011;44860;53.020;6.738;2023-12-20T14:17:46;8.52;;;2.00;;
59074;SDS011;44860;53.020;6.738;2023-12-20T14:20:12;9.10;;;1.50;;
59074;SDS011;44860;53.020;6.738;2023-12-20T14:22:38;10.18;;;1.77;;
59074;SDS011;44860;53.020;6.738;2023-12-20T14:25:10;8.38;;;1.73;;
59074;SDS011;44860;53.020;6.738;2023-12-20T14:27:37;9.02;;;1.73;;
59074;SDS011;44860;53.020;6.738;2023-12-20T14:30:03;8.27;;;1.50;;
59074;SDS011;44860;53.020;6.738;2023-12-20T14:32:31;9.05;;;1.83;;
59074;SDS011;44860;53.020;6.738;2023-12-20T14:34:57;9.80;;;2.88;;
59074;SDS011;44860;53.020;6.738;2023-12-20T14:37:23;9.75;;;3.08;;
59074;SDS011;44860;53.020;6.738;2023-12-20T14:39:48;11.23;;;2.80;;
59074;SDS011;44860;53.020;6.738;2023-12-20T14:42:14;9.25;;;1.95;;
59074;SDS011;44860;53.020;6.738;2023-12-20T14:44:40;10.13;;;2.30;;
59074;SDS011;44860;53.020;6.738;2023-12-20T14:47:06;10.02;;;2.10;;